Liberty — WDF4885 — position and weather

sailwx.info

Track history (hours):
 
Tides and Currents Weather Stations Pressure Air Temp Water Temp Dewpoint Dewpoint Depression Visibility Wind Speed Wind Dir Waves Ship Positions

Liberty

Owner: Canal Barge Company, Inc., Belle Chasse, LA. More information available from US FCC via Universal Licensing System and Coast Guard Vessel Documentation Center.

Last reported at 2018-Jan-11 12:09 UTC. Time now 2018-Jan-19 00:03 UTC.
Position N 29°44' W 095°03'.

Length 25 m; draft 3 m.

MMSI: 367456870.

Date/timePositionNaut miles runAvg speedWind from/ knotsBaromVisibWave heightAir tempDewpointWater temp
2018-Jan-11 12:09N 29°44' W 095°03'2 5.9
2018-Jan-11 11:53N 29°44' W 095°01'2 5.0
2018-Jan-11 11:27N 29°42' W 094°60'3 5.8
2018-Jan-11 11:00N 29°40' W 094°58'3 6.2
2018-Jan-11 10:30N 29°37' W 094°57'3 6.5
2018-Jan-11 10:00N 29°34' W 094°55'72 2.4
2018-Jan-10 04:30N 30°04' W 093°40'3 5.4
2018-Jan-10 03:58N 30°04' W 093°36'2 5.2
2018-Jan-10 03:30N 30°04' W 093°33'2 5.0
2018-Jan-10 03:00N 30°04' W 093°30'2 4.8
2018-Jan-10 02:30N 30°04' W 093°28'3 5.3
2018-Jan-10 02:00N 30°04' W 093°25'2 4.7
2018-Jan-10 01:30N 30°04' W 093°22'2 3.4
2018-Jan-10 01:00N 30°05' W 093°20'2 3.3
2018-Jan-10 00:30N 30°06' W 093°19'0 0.6
2018-Jan-10 00:00N 30°06' W 093°19'0 0.3
2018-Jan-09 23:30N 30°06' W 093°19'0 0.3
2018-Jan-09 23:00N 30°06' W 093°19'0 0.0
2018-Jan-09 22:30N 30°06' W 093°19'0 0.0
2018-Jan-09 22:00N 30°06' W 093°19'0 0.1
2018-Jan-09 21:30N 30°06' W 093°19'0 0.2
2018-Jan-09 21:00N 30°06' W 093°19'0 0.0
2018-Jan-09 20:30N 30°06' W 093°19'0 0.0
2018-Jan-09 20:00N 30°06' W 093°19'0 0.2
2018-Jan-09 19:30N 30°06' W 093°19'1 2.8
2018-Jan-09 19:00N 30°05' W 093°18'1 1.6
2018-Jan-09 18:30N 30°05' W 093°17'1 1.1
2018-Jan-09 18:00N 30°04' W 093°16'0 0.0
2018-Jan-09 17:30N 30°04' W 093°16'0 0.0
2018-Jan-09 17:00N 30°04' W 093°16'0 0.0
2018-Jan-09 16:30N 30°04' W 093°16'0 0.0
2018-Jan-09 16:00N 30°04' W 093°16'0 0.0
2018-Jan-09 15:30N 30°04' W 093°16'0 0.0
2018-Jan-09 15:00N 30°04' W 093°16'0 0.0
2018-Jan-09 14:30N 30°04' W 093°16'1 1.3
2018-Jan-09 14:00N 30°04' W 093°16'2 4.2
2018-Jan-09 13:30N 30°02' W 093°15'2 3.0
2018-Jan-09 13:00N 30°01' W 093°14'2 4.8
2018-Jan-09 12:30N 29°59' W 093°12'2 4.9
2018-Jan-09 12:00N 29°57' W 093°10'2 3.0
2018-Jan-09 11:30N 29°56' W 093°09'0 0.2
2018-Jan-09 11:00N 29°56' W 093°09'41 4.6
2018-Jan-09 02:05N 29°51' W 092°22'1 4.3
2018-Jan-09 01:44N 29°51' W 092°20'1 4.6
2018-Jan-09 01:30N 29°50' W 092°19'2 4.2
2018-Jan-09 01:00N 29°49' W 092°17'2 4.5
2018-Jan-09 00:30N 29°48' W 092°15'2 4.2
2018-Jan-09 00:00N 29°47' W 092°13'2 3.0
2018-Jan-08 23:30N 29°47' W 092°11'0 0.0
2018-Jan-08 23:00N 29°47' W 092°11'0 0.0
2018-Jan-08 22:30N 29°47' W 092°11'0 0.2
2018-Jan-08 22:00N 29°47' W 092°11'0 0.0
2018-Jan-08 21:30N 29°47' W 092°11'0 0.1
2018-Jan-08 21:00N 29°47' W 092°11'0 0.6
2018-Jan-08 20:30N 29°47' W 092°11'1 2.7
2018-Jan-08 20:00N 29°47' W 092°10'2 4.7
2018-Jan-08 19:30N 29°47' W 092°07'2 3.7
2018-Jan-08 19:00N 29°48' W 092°05'3 5.2
2018-Jan-08 18:30N 29°49' W 092°02'2 0.5
2018-Jan-08 14:10N 29°50' W 091°60'1 3.7
2018-Jan-08 13:50N 29°49' W 092°01'0 0.3
2018-Jan-08 13:13N 29°49' W 092°01'0 0.0
2018-Jan-08 12:58N 29°49' W 092°01'0 0.0
2018-Jan-08 12:30N 29°49' W 092°01'0 0.0
2018-Jan-08 11:57N 29°49' W 092°01'0 0.0
2018-Jan-08 11:30N 29°49' W 092°01'0 0.0
2018-Jan-08 11:00N 29°49' W 092°01'0 0.0
2018-Jan-08 10:25N 29°49' W 092°01'0 0.2
2018-Jan-08 10:00N 29°49' W 092°01'0 0.1
2018-Jan-08 09:12N 29°49' W 092°01'0 0.1
2018-Jan-08 08:49N 29°49' W 092°01'0 0.0
2018-Jan-08 08:30N 29°49' W 092°01'0 0.0
2018-Jan-08 07:18N 29°49' W 092°01'0 0.0
2018-Jan-08 06:56N 29°49' W 092°01'0 0.0
2018-Jan-08 06:28N 29°49' W 092°01'0 0.0
2018-Jan-08 05:54N 29°49' W 092°01'0 0.0
2018-Jan-08 05:30N 29°49' W 092°01'0 0.0
2018-Jan-08 05:00N 29°49' W 092°01'0 0.0
2018-Jan-08 04:23N 29°49' W 092°01'0 0.0
2018-Jan-08 03:50N 29°49' W 092°01'0 0.0
2018-Jan-08 03:30N 29°49' W 092°01'0 0.0
2018-Jan-08 02:56N 29°49' W 092°01'0 0.0
2018-Jan-08 02:29N 29°49' W 092°01'0 0.0
2018-Jan-08 01:59N 29°49' W 092°01'0 0.0
2018-Jan-08 01:28N 29°49' W 092°01'0 0.1
2018-Jan-08 01:00N 29°49' W 092°01'1 1.0
2018-Jan-08 00:30N 29°49' W 092°02'2 3.9
2018-Jan-08 00:00N 29°48' W 092°04'2 3.8
2018-Jan-07 23:30N 29°48' W 092°06'2 4.2
2018-Jan-07 23:00N 29°47' W 092°08'2 4.1
2018-Jan-07 22:30N 29°47' W 092°11'2 3.5
2018-Jan-07 22:00N 29°47' W 092°12'0 0.9
2018-Jan-07 21:30N 29°47' W 092°13'1 1.3
2018-Jan-07 21:00N 29°48' W 092°14'1 2.0
2018-Jan-07 20:30N 29°48' W 092°15'0 0.1
2018-Jan-07 20:00N 29°48' W 092°15'0 0.7
2018-Jan-07 19:30N 29°48' W 092°15'1 2.2
2018-Jan-07 19:00N 29°49' W 092°16'0 0.1
2018-Jan-07 18:30N 29°49' W 092°16'0 0.8
2018-Jan-07 18:00N 29°49' W 092°17'0 0.0
2018-Jan-07 17:30N 29°49' W 092°17'0 0.2
2018-Jan-07 17:00N 29°49' W 092°17'1 2.5
2018-Jan-07 16:29N 29°50' W 092°18'2 3.6
2018-Jan-07 16:00N 29°50' W 092°20'2 3.3
2018-Jan-07 15:30N 29°51' W 092°22'32 3.3
2018-Jan-07 05:41N 29°56' W 092°59'5 3.5
2018-Jan-07 04:18N 29°56' W 093°04'1 3.5
2018-Jan-07 03:59N 29°56' W 093°05'2 3.4
2018-Jan-07 03:30N 29°56' W 093°07'2 3.0
2018-Jan-07 03:00N 29°56' W 093°09'1 2.9
2018-Jan-07 02:30N 29°57' W 093°10'2 3.6
2018-Jan-07 02:00N 29°58' W 093°12'2 3.5
2018-Jan-07 01:30N 29°60' W 093°13'3 3.2
2018-Jan-07 00:30N 30°02' W 093°15'2 3.3
2018-Jan-07 00:00N 30°04' W 093°16'2 3.6
2018-Jan-06 23:30N 30°05' W 093°17'0 0.9
2018-Jan-06 23:00N 30°05' W 093°18'1 1.8
2018-Jan-06 22:30N 30°06' W 093°18'1 2.1
2018-Jan-06 22:00N 30°06' W 093°19'2 3.3
2018-Jan-06 21:30N 30°04' W 093°21'1 2.7
2018-Jan-06 21:00N 30°04' W 093°22'0 0.1
2018-Jan-06 20:31N 30°04' W 093°22'0 0.0
2018-Jan-06 20:00N 30°04' W 093°22'1 1.3
2018-Jan-06 19:30N 30°04' W 093°23'2 3.8
2018-Jan-06 19:00N 30°04' W 093°25'2 4.0
2018-Jan-06 18:30N 30°04' W 093°27'2 3.8
2018-Jan-06 18:00N 30°04' W 093°29'2 3.0
2018-Jan-06 17:30N 30°04' W 093°31'2 3.3
2018-Jan-06 17:00N 30°04' W 093°33'2 3.8
2018-Jan-06 16:30N 30°04' W 093°35'2 4.1
2018-Jan-06 15:59N 30°04' W 093°38'3 4.4
2018-Jan-06 15:21N 30°03' W 093°41'2 4.5
2018-Jan-06 14:58N 30°03' W 093°43'8 2.9
2018-Jan-06 12:04N 29°58' W 093°51'0 0.9
2018-Jan-06 11:59N 29°58' W 093°51'0 0.5
2018-Jan-06 11:30N 29°58' W 093°51'60 4.2
2018-Jan-05 21:10N 29°30' W 094°52'1 8.3
2018-Jan-05 20:59N 29°31' W 094°53'4 8.1
2018-Jan-05 20:28N 29°34' W 094°55'4 8.0
2018-Jan-05 20:00N 29°38' W 094°58'4 8.4
2018-Jan-05 19:30N 29°41' W 094°59'7 1.0
2018-Jan-05 12:16N 29°47' W 095°04'1 2.7
2018-Jan-05 11:59N 29°46' W 095°05'4 5.9
2018-Jan-05 11:14N 29°43' W 095°01'2 6.9
2018-Jan-05 11:00N 29°42' W 094°60'3 5.8
2018-Jan-05 10:30N 29°39' W 094°58'4 8.1
2018-Jan-05 10:00N 29°36' W 094°57'4 7.5
2018-Jan-05 09:30N 29°33' W 094°54'69 3.1
2018-Jan-04 11:09N 30°03' W 093°43'1 6.1
2018-Jan-04 10:58N 30°04' W 093°41'3 6.2
2018-Jan-04 10:30N 30°04' W 093°38'3 5.8
2018-Jan-04 10:00N 30°04' W 093°35'3 5.5
2018-Jan-04 09:30N 30°04' W 093°32'3 5.2
2018-Jan-04 09:00N 30°04' W 093°29'3 5.1
2018-Jan-04 08:30N 30°04' W 093°26'2 4.8
2018-Jan-04 08:00N 30°04' W 093°23'2 4.3
2018-Jan-04 07:30N 30°04' W 093°20'2 4.6
2018-Jan-04 07:00N 30°06' W 093°19'0 0.0
2018-Jan-04 06:30N 30°06' W 093°19'0 0.1
2018-Jan-04 06:00N 30°06' W 093°19'0 0.1
2018-Jan-04 05:30N 30°06' W 093°19'0 0.0
2018-Jan-04 05:00N 30°06' W 093°19'0 0.1
2018-Jan-04 04:30N 30°06' W 093°19'0 0.0
2018-Jan-04 04:00N 30°06' W 093°19'0 0.0
2018-Jan-04 03:30N 30°06' W 093°19'0 0.0
2018-Jan-04 03:00N 30°06' W 093°19'0 0.0
2018-Jan-04 02:30N 30°06' W 093°19'0 0.0
2018-Jan-04 02:00N 30°06' W 093°19'0 0.0
2018-Jan-04 01:30N 30°06' W 093°19'0 0.0
2018-Jan-04 01:00N 30°06' W 093°19'0 0.0
2018-Jan-04 00:30N 30°06' W 093°19'0 0.0
2018-Jan-04 00:00N 30°06' W 093°19'0 0.1
2018-Jan-03 23:30N 30°06' W 093°19'0 0.2
2018-Jan-03 23:00N 30°06' W 093°19'1 2.6
2018-Jan-03 22:30N 30°05' W 093°18'1 2.0
2018-Jan-03 22:00N 30°05' W 093°17'0 0.2
2018-Jan-03 21:30N 30°05' W 093°16'0 0.0
2018-Jan-03 21:00N 30°05' W 093°16'0 0.0
2018-Jan-03 20:30N 30°05' W 093°17'0 0.2
2018-Jan-03 20:00N 30°04' W 093°16'0 0.1
2018-Jan-03 19:30N 30°04' W 093°16'2 3.4
2018-Jan-03 19:00N 30°03' W 093°16'2 4.4
2018-Jan-03 18:30N 30°01' W 093°14'2 4.4
2018-Jan-03 18:00N 29°59' W 093°13'2 4.6
2018-Jan-03 17:30N 29°58' W 093°11'2 4.5
2018-Jan-03 17:00N 29°56' W 093°09'2 4.4
2018-Jan-03 16:30N 29°56' W 093°07'2 3.2
2018-Jan-03 15:58N 29°56' W 093°05'38 4.5
2018-Jan-03 07:37N 29°51' W 092°22'1 4.6
2018-Jan-03 07:30N 29°51' W 092°21'2 4.8
2018-Jan-03 07:00N 29°50' W 092°19'2 4.7
2018-Jan-03 06:30N 29°49' W 092°17'3 5.1
2018-Jan-03 06:00N 29°48' W 092°14'2 3.0
2018-Jan-03 05:30N 29°47' W 092°12'1 2.9
2018-Jan-03 05:00N 29°47' W 092°11'2 4.5
2018-Jan-03 04:30N 29°47' W 092°08'2 5.0
2018-Jan-03 04:00N 29°48' W 092°05'3 5.1
2018-Jan-03 03:30N 29°49' W 092°03'3 5.5
2018-Jan-03 02:59N 29°50' W 091°60'4 5.1
2018-Jan-03 02:09N 29°51' W 091°55'  
Track history (hours):
 
Tides and Currents Weather Stations Pressure Air Temp Water Temp Dewpoint Dewpoint Depression Visibility Wind Speed Wind Dir Waves Ship Positions

Liberty

Owner: Canal Barge Company, Inc., Belle Chasse, LA. More information available from US FCC via Universal Licensing System and Coast Guard Vessel Documentation Center.

Last reported at 2018-Jan-11 12:09 UTC. Time now 2018-Jan-19 00:03 UTC.
Position N 29°44' W 095°03'.

Length 25 m; draft 3 m.

MMSI: 367456870.

Date/timePositionNaut miles runAvg speedWind from/ knotsBaromVisibWave heightAir tempDewpointWater temp
2018-Jan-11 12:09N 29°44' W 095°03'2 5.9
2018-Jan-11 11:53N 29°44' W 095°01'2 5.0
2018-Jan-11 11:27N 29°42' W 094°60'3 5.8
2018-Jan-11 11:00N 29°40' W 094°58'3 6.2
2018-Jan-11 10:30N 29°37' W 094°57'3 6.5
2018-Jan-11 10:00N 29°34' W 094°55'72 2.4
2018-Jan-10 04:30N 30°04' W 093°40'3 5.4
2018-Jan-10 03:58N 30°04' W 093°36'2 5.2
2018-Jan-10 03:30N 30°04' W 093°33'2 5.0
2018-Jan-10 03:00N 30°04' W 093°30'2 4.8
2018-Jan-10 02:30N 30°04' W 093°28'3 5.3
2018-Jan-10 02:00N 30°04' W 093°25'2 4.7
2018-Jan-10 01:30N 30°04' W 093°22'2 3.4
2018-Jan-10 01:00N 30°05' W 093°20'2 3.3
2018-Jan-10 00:30N 30°06' W 093°19'0 0.6
2018-Jan-10 00:00N 30°06' W 093°19'0 0.3
2018-Jan-09 23:30N 30°06' W 093°19'0 0.3
2018-Jan-09 23:00N 30°06' W 093°19'0 0.0
2018-Jan-09 22:30N 30°06' W 093°19'0 0.0
2018-Jan-09 22:00N 30°06' W 093°19'0 0.1
2018-Jan-09 21:30N 30°06' W 093°19'0 0.2
2018-Jan-09 21:00N 30°06' W 093°19'0 0.0
2018-Jan-09 20:30N 30°06' W 093°19'0 0.0
2018-Jan-09 20:00N 30°06' W 093°19'0 0.2
2018-Jan-09 19:30N 30°06' W 093°19'1 2.8
2018-Jan-09 19:00N 30°05' W 093°18'1 1.6
2018-Jan-09 18:30N 30°05' W 093°17'1 1.1
2018-Jan-09 18:00N 30°04' W 093°16'0 0.0
2018-Jan-09 17:30N 30°04' W 093°16'0 0.0
2018-Jan-09 17:00N 30°04' W 093°16'0 0.0
2018-Jan-09 16:30N 30°04' W 093°16'0 0.0
2018-Jan-09 16:00N 30°04' W 093°16'0 0.0
2018-Jan-09 15:30N 30°04' W 093°16'0 0.0
2018-Jan-09 15:00N 30°04' W 093°16'0 0.0
2018-Jan-09 14:30N 30°04' W 093°16'1 1.3
2018-Jan-09 14:00N 30°04' W 093°16'2 4.2
2018-Jan-09 13:30N 30°02' W 093°15'2 3.0
2018-Jan-09 13:00N 30°01' W 093°14'2 4.8
2018-Jan-09 12:30N 29°59' W 093°12'2 4.9
2018-Jan-09 12:00N 29°57' W 093°10'2 3.0
2018-Jan-09 11:30N 29°56' W 093°09'0 0.2
2018-Jan-09 11:00N 29°56' W 093°09'41 4.6
2018-Jan-09 02:05N 29°51' W 092°22'1 4.3
2018-Jan-09 01:44N 29°51' W 092°20'1 4.6
2018-Jan-09 01:30N 29°50' W 092°19'2 4.2
2018-Jan-09 01:00N 29°49' W 092°17'2 4.5
2018-Jan-09 00:30N 29°48' W 092°15'2 4.2
2018-Jan-09 00:00N 29°47' W 092°13'2 3.0
2018-Jan-08 23:30N 29°47' W 092°11'0 0.0
2018-Jan-08 23:00N 29°47' W 092°11'0 0.0
2018-Jan-08 22:30N 29°47' W 092°11'0 0.2
2018-Jan-08 22:00N 29°47' W 092°11'0 0.0
2018-Jan-08 21:30N 29°47' W 092°11'0 0.1
2018-Jan-08 21:00N 29°47' W 092°11'0 0.6
2018-Jan-08 20:30N 29°47' W 092°11'1 2.7
2018-Jan-08 20:00N 29°47' W 092°10'2 4.7
2018-Jan-08 19:30N 29°47' W 092°07'2 3.7
2018-Jan-08 19:00N 29°48' W 092°05'3 5.2
2018-Jan-08 18:30N 29°49' W 092°02'2 0.5
2018-Jan-08 14:10N 29°50' W 091°60'1 3.7
2018-Jan-08 13:50N 29°49' W 092°01'0 0.3
2018-Jan-08 13:13N 29°49' W 092°01'0 0.0
2018-Jan-08 12:58N 29°49' W 092°01'0 0.0
2018-Jan-08 12:30N 29°49' W 092°01'0 0.0
2018-Jan-08 11:57N 29°49' W 092°01'0 0.0
2018-Jan-08 11:30N 29°49' W 092°01'0 0.0
2018-Jan-08 11:00N 29°49' W 092°01'0 0.0
2018-Jan-08 10:25N 29°49' W 092°01'0 0.2
2018-Jan-08 10:00N 29°49' W 092°01'0 0.1
2018-Jan-08 09:12N 29°49' W 092°01'0 0.1
2018-Jan-08 08:49N 29°49' W 092°01'0 0.0
2018-Jan-08 08:30N 29°49' W 092°01'0 0.0
2018-Jan-08 07:18N 29°49' W 092°01'0 0.0
2018-Jan-08 06:56N 29°49' W 092°01'0 0.0
2018-Jan-08 06:28N 29°49' W 092°01'0 0.0
2018-Jan-08 05:54N 29°49' W 092°01'0 0.0
2018-Jan-08 05:30N 29°49' W 092°01'0 0.0
2018-Jan-08 05:00N 29°49' W 092°01'0 0.0
2018-Jan-08 04:23N 29°49' W 092°01'0 0.0
2018-Jan-08 03:50N 29°49' W 092°01'0 0.0
2018-Jan-08 03:30N 29°49' W 092°01'0 0.0
2018-Jan-08 02:56N 29°49' W 092°01'0 0.0
2018-Jan-08 02:29N 29°49' W 092°01'0 0.0
2018-Jan-08 01:59N 29°49' W 092°01'0 0.0
2018-Jan-08 01:28N 29°49' W 092°01'0 0.1
2018-Jan-08 01:00N 29°49' W 092°01'1 1.0
2018-Jan-08 00:30N 29°49' W 092°02'2 3.9
2018-Jan-08 00:00N 29°48' W 092°04'2 3.8
2018-Jan-07 23:30N 29°48' W 092°06'2 4.2
2018-Jan-07 23:00N 29°47' W 092°08'2 4.1
2018-Jan-07 22:30N 29°47' W 092°11'2 3.5
2018-Jan-07 22:00N 29°47' W 092°12'0 0.9
2018-Jan-07 21:30N 29°47' W 092°13'1 1.3
2018-Jan-07 21:00N 29°48' W 092°14'1 2.0
2018-Jan-07 20:30N 29°48' W 092°15'0 0.1
2018-Jan-07 20:00N 29°48' W 092°15'0 0.7
2018-Jan-07 19:30N 29°48' W 092°15'1 2.2
2018-Jan-07 19:00N 29°49' W 092°16'0 0.1
2018-Jan-07 18:30N 29°49' W 092°16'0 0.8
2018-Jan-07 18:00N 29°49' W 092°17'0 0.0
2018-Jan-07 17:30N 29°49' W 092°17'0 0.2
2018-Jan-07 17:00N 29°49' W 092°17'1 2.5
2018-Jan-07 16:29N 29°50' W 092°18'2 3.6
2018-Jan-07 16:00N 29°50' W 092°20'2 3.3
2018-Jan-07 15:30N 29°51' W 092°22'32 3.3
2018-Jan-07 05:41N 29°56' W 092°59'5 3.5
2018-Jan-07 04:18N 29°56' W 093°04'1 3.5
2018-Jan-07 03:59N 29°56' W 093°05'2 3.4
2018-Jan-07 03:30N 29°56' W 093°07'2 3.0
2018-Jan-07 03:00N 29°56' W 093°09'1 2.9
2018-Jan-07 02:30N 29°57' W 093°10'2 3.6
2018-Jan-07 02:00N 29°58' W 093°12'2 3.5
2018-Jan-07 01:30N 29°60' W 093°13'3 3.2
2018-Jan-07 00:30N 30°02' W 093°15'2 3.3
2018-Jan-07 00:00N 30°04' W 093°16'2 3.6
2018-Jan-06 23:30N 30°05' W 093°17'0 0.9
2018-Jan-06 23:00N 30°05' W 093°18'1 1.8
2018-Jan-06 22:30N 30°06' W 093°18'1 2.1
2018-Jan-06 22:00N 30°06' W 093°19'2 3.3
2018-Jan-06 21:30N 30°04' W 093°21'1 2.7
2018-Jan-06 21:00N 30°04' W 093°22'0 0.1
2018-Jan-06 20:31N 30°04' W 093°22'0 0.0
2018-Jan-06 20:00N 30°04' W 093°22'1 1.3
2018-Jan-06 19:30N 30°04' W 093°23'2 3.8
2018-Jan-06 19:00N 30°04' W 093°25'2 4.0
2018-Jan-06 18:30N 30°04' W 093°27'2 3.8
2018-Jan-06 18:00N 30°04' W 093°29'2 3.0
2018-Jan-06 17:30N 30°04' W 093°31'2 3.3
2018-Jan-06 17:00N 30°04' W 093°33'2 3.8
2018-Jan-06 16:30N 30°04' W 093°35'2 4.1
2018-Jan-06 15:59N 30°04' W 093°38'3 4.4
2018-Jan-06 15:21N 30°03' W 093°41'2 4.5
2018-Jan-06 14:58N 30°03' W 093°43'8 2.9
2018-Jan-06 12:04N 29°58' W 093°51'0 0.9
2018-Jan-06 11:59N 29°58' W 093°51'0 0.5
2018-Jan-06 11:30N 29°58' W 093°51'60 4.2
2018-Jan-05 21:10N 29°30' W 094°52'1 8.3
2018-Jan-05 20:59N 29°31' W 094°53'4 8.1
2018-Jan-05 20:28N 29°34' W 094°55'4 8.0
2018-Jan-05 20:00N 29°38' W 094°58'4 8.4
2018-Jan-05 19:30N 29°41' W 094°59'7 1.0
2018-Jan-05 12:16N 29°47' W 095°04'1 2.7
2018-Jan-05 11:59N 29°46' W 095°05'4 5.9
2018-Jan-05 11:14N 29°43' W 095°01'2 6.9
2018-Jan-05 11:00N 29°42' W 094°60'3 5.8
2018-Jan-05 10:30N 29°39' W 094°58'4 8.1
2018-Jan-05 10:00N 29°36' W 094°57'4 7.5
2018-Jan-05 09:30N 29°33' W 094°54'69 3.1
2018-Jan-04 11:09N 30°03' W 093°43'1 6.1
2018-Jan-04 10:58N 30°04' W 093°41'3 6.2
2018-Jan-04 10:30N 30°04' W 093°38'3 5.8
2018-Jan-04 10:00N 30°04' W 093°35'3 5.5
2018-Jan-04 09:30N 30°04' W 093°32'3 5.2
2018-Jan-04 09:00N 30°04' W 093°29'3 5.1
2018-Jan-04 08:30N 30°04' W 093°26'2 4.8
2018-Jan-04 08:00N 30°04' W 093°23'2 4.3
2018-Jan-04 07:30N 30°04' W 093°20'2 4.6
2018-Jan-04 07:00N 30°06' W 093°19'0 0.0
2018-Jan-04 06:30N 30°06' W 093°19'0 0.1
2018-Jan-04 06:00N 30°06' W 093°19'0 0.1
2018-Jan-04 05:30N 30°06' W 093°19'0 0.0
2018-Jan-04 05:00N 30°06' W 093°19'0 0.1
2018-Jan-04 04:30N 30°06' W 093°19'0 0.0
2018-Jan-04 04:00N 30°06' W 093°19'0 0.0
2018-Jan-04 03:30N 30°06' W 093°19'0 0.0
2018-Jan-04 03:00N 30°06' W 093°19'0 0.0
2018-Jan-04 02:30N 30°06' W 093°19'0 0.0
2018-Jan-04 02:00N 30°06' W 093°19'0 0.0
2018-Jan-04 01:30N 30°06' W 093°19'0 0.0
2018-Jan-04 01:00N 30°06' W 093°19'0 0.0
2018-Jan-04 00:30N 30°06' W 093°19'0 0.0
2018-Jan-04 00:00N 30°06' W 093°19'0 0.1
2018-Jan-03 23:30N 30°06' W 093°19'0 0.2
2018-Jan-03 23:00N 30°06' W 093°19'1 2.6
2018-Jan-03 22:30N 30°05' W 093°18'1 2.0
2018-Jan-03 22:00N 30°05' W 093°17'0 0.2
2018-Jan-03 21:30N 30°05' W 093°16'0 0.0
2018-Jan-03 21:00N 30°05' W 093°16'0 0.0
2018-Jan-03 20:30N 30°05' W 093°17'0 0.2
2018-Jan-03 20:00N 30°04' W 093°16'0 0.1
2018-Jan-03 19:30N 30°04' W 093°16'2 3.4
2018-Jan-03 19:00N 30°03' W 093°16'2 4.4
2018-Jan-03 18:30N 30°01' W 093°14'2 4.4
2018-Jan-03 18:00N 29°59' W 093°13'2 4.6
2018-Jan-03 17:30N 29°58' W 093°11'2 4.5
2018-Jan-03 17:00N 29°56' W 093°09'2 4.4
2018-Jan-03 16:30N 29°56' W 093°07'2 3.2
2018-Jan-03 15:58N 29°56' W 093°05'38 4.5
2018-Jan-03 07:37N 29°51' W 092°22'1 4.6
2018-Jan-03 07:30N 29°51' W 092°21'2 4.8
2018-Jan-03 07:00N 29°50' W 092°19'2 4.7
2018-Jan-03 06:30N 29°49' W 092°17'3 5.1
2018-Jan-03 06:00N 29°48' W 092°14'2 3.0
2018-Jan-03 05:30N 29°47' W 092°12'1 2.9
2018-Jan-03 05:00N 29°47' W 092°11'2 4.5
2018-Jan-03 04:30N 29°47' W 092°08'2 5.0
2018-Jan-03 04:00N 29°48' W 092°05'3 5.1
2018-Jan-03 03:30N 29°49' W 092°03'3 5.5
2018-Jan-03 02:59N 29°50' W 091°60'4 5.1
2018-Jan-03 02:09N 29°51' W 091°55'  

Dump ship's entire track history